createdAt,value
2022-12-15T00:00:14.043Z,83.47
2022-12-15T00:03:00.084Z,89.87
2022-12-15T00:05:50.029Z,79.90
2022-12-15T00:08:36.749Z,103.73
2022-12-15T00:11:22.710Z,101.10
2022-12-15T00:14:10.286Z,99.47
2022-12-15T00:16:56.228Z,83.67
2022-12-15T00:19:42.576Z,80.60
2022-12-15T00:22:28.748Z,78.47
2022-12-15T00:25:14.726Z,83.27
2022-12-15T00:28:00.772Z,90.43
2022-12-15T00:30:49.990Z,85.40
2022-12-15T00:33:36.230Z,91.33
2022-12-15T00:36:22.300Z,93.03
2022-12-15T00:38:50.754Z,94.53
2022-12-15T00:41:20.358Z,89.60
2022-12-15T00:43:48.970Z,88.83
2022-12-15T00:46:36.897Z,89.00
2022-12-15T00:49:26.608Z,80.53
2022-12-15T00:52:12.889Z,74.20
2022-12-15T00:54:58.777Z,76.00
2022-12-15T00:57:44.714Z,83.90
2022-12-15T01:00:31.619Z,85.47
2022-12-15T01:03:19.673Z,80.47
2022-12-15T01:06:05.889Z,76.67
2022-12-15T01:08:52.918Z,62.57
2022-12-15T01:11:39.066Z,77.03
2022-12-15T01:14:24.996Z,76.50
2022-12-15T01:17:11.151Z,70.63
2022-12-15T01:19:58.714Z,77.40
2022-12-15T01:22:27.210Z,73.23
2022-12-15T01:24:55.645Z,73.23
2022-12-15T01:27:24.505Z,81.87
2022-12-15T01:29:53.022Z,69.87
2022-12-15T01:32:21.551Z,86.83
2022-12-15T01:34:51.466Z,75.63
2022-12-15T01:37:19.934Z,75.17
2022-12-15T01:40:06.288Z,66.57
2022-12-15T01:42:34.729Z,85.17
2022-12-15T01:45:18.104Z,87.73
2022-12-15T01:47:46.588Z,94.90
2022-12-15T01:50:16.768Z,92.33
2022-12-15T01:52:45.511Z,79.63
2022-12-15T01:55:18.481Z,69.53
2022-12-15T01:57:47.435Z,79.83
2022-12-15T02:00:16.469Z,70.57
2022-12-15T02:02:45.151Z,79.50
2022-12-15T02:05:13.763Z,72.53
2022-12-15T02:07:43.773Z,77.67
2022-12-15T02:10:12.907Z,69.60
2022-12-15T02:12:43.675Z,74.20
2022-12-15T02:15:17.813Z,73.80
2022-12-15T02:17:51.095Z,67.53
2022-12-15T02:20:30.278Z,74.83
2022-12-15T02:23:31.997Z,62.03
2022-12-15T02:26:12.955Z,79.20
2022-12-15T02:28:49.215Z,71.77
2022-12-15T02:31:37.867Z,69.70
2022-12-15T02:34:08.999Z,77.07
2022-12-15T02:36:39.444Z,79.73
2022-12-15T02:39:08.257Z,70.17
2022-12-15T02:41:38.118Z,77.87
2022-12-15T02:44:10.159Z,69.87
2022-12-15T02:46:47.743Z,69.37
2022-12-15T02:49:22.330Z,68.83
2022-12-15T02:51:55.245Z,77.57
2022-12-15T02:54:30.099Z,70.23
2022-12-15T02:57:05.931Z,79.77
2022-12-15T02:59:39.216Z,69.07
2022-12-15T03:02:10.656Z,65.87
2022-12-15T03:04:39.305Z,76.43
2022-12-15T03:07:10.044Z,65.70
2022-12-15T03:09:38.635Z,73.27
2022-12-15T03:12:07.378Z,83.60
2022-12-15T03:14:35.986Z,80.37
2022-12-15T03:17:07.169Z,91.57
2022-12-15T03:19:36.982Z,76.47
2022-12-15T03:22:05.492Z,72.47
2022-12-15T03:24:33.892Z,77.20
2022-12-15T03:27:02.395Z,83.77
2022-12-15T03:29:30.812Z,78.30
2022-12-15T03:31:59.370Z,73.07
2022-12-15T03:34:28.893Z,72.63
2022-12-15T03:36:59.284Z,80.03
2022-12-15T03:39:27.764Z,85.43
2022-12-15T03:41:56.194Z,86.40
2022-12-15T03:44:24.776Z,93.30
2022-12-15T03:46:57.243Z,90.17
2022-12-15T03:49:29.840Z,76.63
2022-12-15T03:51:59.671Z,84.77
2022-12-15T03:54:28.083Z,85.13
2022-12-15T03:56:56.503Z,96.67
2022-12-15T03:59:25.024Z,91.17
2022-12-15T04:01:53.531Z,87.77
2022-12-15T04:04:22.065Z,92.10
2022-12-15T04:06:50.496Z,79.60
2022-12-15T04:09:20.358Z,78.27
2022-12-15T04:11:48.813Z,79.27
2022-12-15T04:14:17.214Z,78.40
2022-12-15T04:16:45.739Z,89.63
2022-12-15T04:19:32.180Z,78.87
2022-12-15T04:22:02.544Z,86.03
2022-12-15T04:24:50.271Z,90.07
2022-12-15T04:27:36.109Z,80.20
2022-12-15T04:30:22.652Z,83.33
2022-12-15T04:33:08.828Z,81.93
2022-12-15T04:35:54.980Z,74.97
2022-12-15T04:38:47.116Z,89.93
2022-12-15T04:41:38.424Z,82.43
2022-12-15T04:44:24.876Z,89.23
2022-12-15T04:47:10.768Z,70.70
2022-12-15T04:49:56.763Z,80.40
2022-12-15T04:52:42.915Z,87.93
2022-12-15T04:55:28.787Z,85.13
2022-12-15T04:58:16.267Z,81.00
2022-12-15T05:01:02.462Z,84.83
2022-12-15T05:03:48.433Z,69.47
2022-12-15T05:06:34.900Z,71.23
2022-12-15T05:09:21.634Z,86.17
2022-12-15T05:12:07.588Z,82.57
2022-12-15T05:14:55.199Z,77.53
2022-12-15T05:17:41.965Z,79.93
2022-12-15T05:20:29.698Z,79.50
2022-12-15T05:23:16.211Z,78.53
2022-12-15T05:26:02.507Z,90.63
2022-12-15T05:28:48.340Z,94.93
2022-12-15T05:31:36.034Z,83.97
2022-12-15T05:34:05.742Z,84.87
2022-12-15T05:36:34.690Z,92.63
2022-12-15T05:39:03.050Z,84.53
2022-12-15T05:41:31.622Z,96.97
2022-12-15T05:44:00.108Z,90.63
2022-12-15T05:46:30.036Z,85.33
2022-12-15T05:48:58.423Z,80.87
2022-12-15T05:51:26.846Z,91.03
2022-12-15T05:53:56.076Z,89.53
2022-12-15T05:56:24.561Z,93.00
2022-12-15T05:58:53.266Z,82.73
2022-12-15T06:01:22.371Z,98.33
2022-12-15T06:03:52.370Z,93.97
2022-12-15T06:06:21.304Z,83.67
2022-12-15T06:08:50.249Z,86.00
2022-12-15T06:11:19.713Z,72.80
2022-12-15T06:13:48.364Z,79.57
2022-12-15T06:16:18.885Z,76.77
2022-12-15T06:18:50.115Z,79.47
2022-12-15T06:21:21.636Z,85.10
2022-12-15T06:23:50.182Z,93.33
2022-12-15T06:26:21.359Z,104.90
2022-12-15T06:28:50.151Z,101.80
2022-12-15T06:31:22.839Z,102.93
2022-12-15T06:33:57.521Z,100.07
2022-12-15T06:36:31.773Z,98.47
2022-12-15T06:39:00.751Z,105.10
2022-12-15T06:41:30.518Z,99.67
2022-12-15T06:43:59.401Z,87.97
2022-12-15T06:46:29.066Z,86.87
2022-12-15T06:48:58.057Z,95.87
2022-12-15T06:51:27.150Z,108.83
2022-12-15T06:53:57.009Z,101.63
2022-12-15T06:56:32.640Z,117.87
2022-12-15T06:59:03.384Z,90.57
2022-12-15T07:01:32.738Z,92.70
2022-12-15T07:04:03.268Z,100.17
2022-12-15T07:06:36.604Z,108.40
2022-12-15T07:09:10.463Z,101.37
2022-12-15T07:11:39.017Z,88.97
2022-12-15T07:14:07.511Z,108.40
2022-12-15T07:16:36.124Z,108.70
2022-12-15T07:19:04.670Z,104.90
2022-12-15T07:21:33.815Z,104.43
2022-12-15T07:24:02.852Z,110.20
2022-12-15T07:26:33.028Z,115.17
2022-12-15T07:29:01.485Z,105.70
2022-12-15T07:31:30.090Z,108.07
2022-12-15T07:33:59.302Z,98.30
2022-12-15T07:36:28.789Z,96.27
2022-12-15T07:39:00.794Z,113.27
2022-12-15T07:41:30.072Z,103.30
2022-12-15T07:44:00.238Z,113.97
2022-12-15T07:46:29.370Z,111.43
2022-12-15T07:48:57.859Z,105.57
2022-12-15T07:51:27.771Z,102.40
2022-12-15T07:53:56.312Z,103.67
2022-12-15T07:56:25.508Z,95.83
2022-12-15T07:58:54.213Z,101.93
2022-12-15T08:01:24.801Z,98.33
2022-12-15T08:03:53.351Z,93.97
2022-12-15T08:06:22.442Z,96.07
2022-12-15T08:08:51.413Z,91.27
2022-12-15T08:11:21.160Z,98.43
2022-12-15T08:14:02.527Z,99.77
2022-12-15T08:16:34.745Z,98.77
2022-12-15T08:19:03.464Z,86.63
2022-12-15T08:21:32.187Z,94.40
2022-12-15T08:24:01.889Z,99.37
2022-12-15T08:26:31.442Z,100.63
2022-12-15T08:29:48.996Z,96.10
2022-12-15T08:31:55.293Z,99.97
2022-12-15T08:34:23.862Z,100.70
2022-12-15T08:36:52.480Z,89.40
2022-12-15T08:39:23.005Z,87.37
2022-12-15T08:41:51.996Z,92.40
2022-12-15T08:44:20.417Z,87.23
2022-12-15T08:46:48.969Z,89.27
2022-12-15T08:49:22.049Z,88.60
2022-12-15T08:51:52.515Z,83.27
2022-12-15T08:54:21.731Z,79.87
2022-12-15T08:56:50.315Z,83.27
2022-12-15T08:59:19.287Z,96.23
2022-12-15T09:01:48.603Z,94.33
2022-12-15T09:04:17.321Z,89.23
2022-12-15T09:06:50.312Z,88.63
2022-12-15T09:09:19.671Z,83.93
2022-12-15T09:11:48.597Z,77.23
2022-12-15T09:14:17.242Z,78.10
2022-12-15T09:16:45.851Z,83.07
2022-12-15T09:19:19.171Z,79.23
2022-12-15T09:21:49.569Z,75.50
2022-12-15T09:24:28.701Z,76.73
2022-12-15T09:27:00.854Z,75.47
2022-12-15T09:29:29.541Z,73.90
2022-12-15T09:31:58.152Z,75.87
2022-12-15T09:34:26.624Z,72.23
2022-12-15T09:36:56.726Z,80.37
2022-12-15T09:39:25.242Z,76.17
2022-12-15T09:41:55.526Z,79.40
2022-12-15T09:44:25.222Z,86.97
2022-12-15T09:47:01.059Z,90.80
2022-12-15T09:49:38.543Z,76.90
2022-12-15T09:52:11.710Z,85.23
2022-12-15T09:54:42.671Z,82.67
2022-12-15T09:57:15.025Z,93.20
2022-12-15T09:59:47.996Z,81.10
2022-12-15T10:02:24.530Z,84.57
2022-12-15T10:04:58.597Z,79.80
2022-12-15T10:07:30.147Z,88.07
2022-12-15T10:09:58.651Z,82.00
2022-12-15T10:12:29.753Z,79.57
2022-12-15T10:15:08.302Z,88.53
2022-12-15T10:17:43.000Z,80.37
2022-12-15T10:20:19.183Z,81.07
2022-12-15T10:22:51.315Z,74.17
2022-12-15T10:28:23.843Z,89.33
2022-12-15T10:30:53.456Z,87.50
2022-12-15T10:33:25.328Z,86.03
2022-12-15T10:35:54.559Z,81.60
2022-12-15T10:38:27.258Z,75.90
2022-12-15T10:40:57.205Z,82.17
2022-12-15T10:43:27.240Z,84.87
2022-12-15T10:46:02.928Z,76.00
2022-12-15T10:48:31.558Z,93.33
2022-12-15T10:51:16.044Z,100.00
2022-12-15T10:53:50.439Z,86.30
2022-12-15T10:56:28.737Z,76.50
2022-12-15T10:59:01.840Z,86.87
2022-12-15T11:01:31.599Z,95.03
2022-12-15T11:04:01.660Z,85.73
2022-12-15T11:06:33.167Z,77.10
2022-12-15T11:09:11.008Z,84.67
2022-12-15T11:12:12.385Z,89.73
2022-12-15T11:14:44.717Z,80.53
2022-12-15T11:17:17.139Z,88.20
2022-12-15T11:19:49.469Z,84.37
2022-12-15T11:22:23.970Z,86.27
2022-12-15T11:24:54.947Z,87.40
2022-12-15T11:27:26.555Z,80.57
2022-12-15T11:30:06.321Z,96.67
2022-12-15T11:32:35.953Z,89.20
2022-12-15T11:35:06.203Z,87.63
2022-12-15T11:37:41.951Z,94.90
2022-12-15T11:40:25.516Z,90.37
2022-12-15T11:43:11.047Z,97.03
2022-12-15T11:45:43.653Z,91.70
2022-12-15T11:48:14.237Z,101.97
2022-12-15T11:50:51.008Z,101.57
2022-12-15T11:53:45.845Z,90.90
2022-12-15T11:56:27.086Z,92.37
2022-12-15T11:59:01.246Z,102.27
2022-12-15T12:01:49.448Z,112.10
2022-12-15T12:04:24.585Z,108.80
2022-12-15T12:06:58.590Z,110.90
2022-12-15T12:09:31.584Z,114.00
2022-12-15T12:12:06.537Z,118.27
2022-12-15T12:14:41.388Z,118.20
2022-12-15T12:17:13.722Z,115.13
2022-12-15T12:19:44.317Z,124.67
2022-12-15T12:22:23.653Z,128.97
2022-12-15T12:24:56.691Z,122.50
2022-12-15T12:27:31.839Z,113.67
2022-12-15T12:30:02.910Z,113.20
2022-12-15T12:32:44.759Z,127.63
2022-12-15T12:35:31.676Z,130.00
2022-12-15T12:38:04.030Z,122.77
2022-12-15T12:40:37.334Z,120.87
2022-12-15T12:43:13.579Z,129.17
2022-12-15T12:45:50.269Z,124.27
2022-12-15T12:48:23.247Z,128.83
2022-12-15T12:50:51.735Z,133.30
2022-12-15T12:53:34.937Z,131.83
2022-12-15T12:56:03.691Z,139.53
2022-12-15T12:58:34.693Z,132.70
2022-12-15T13:01:06.909Z,141.37
2022-12-15T13:03:35.826Z,138.10
2022-12-15T13:06:21.521Z,130.07
2022-12-15T13:08:51.744Z,132.57
2022-12-15T13:11:39.082Z,137.37
2022-12-15T13:14:21.101Z,122.30
2022-12-15T13:17:25.054Z,125.23
2022-12-15T13:20:04.039Z,124.67
2022-12-15T13:22:34.330Z,126.43
2022-12-15T13:25:03.025Z,115.87
2022-12-15T13:27:36.782Z,124.23
2022-12-15T13:30:16.338Z,119.77
2022-12-15T13:32:46.017Z,125.07
2022-12-15T13:35:22.223Z,115.13
2022-12-15T13:37:52.211Z,118.83
2022-12-15T13:40:35.295Z,118.00
2022-12-15T13:43:37.320Z,123.27
2022-12-15T13:46:13.656Z,119.93
2022-12-15T13:48:43.320Z,134.10
2022-12-15T13:51:28.196Z,139.97
2022-12-15T13:53:59.661Z,127.63
2022-12-15T13:56:41.034Z,129.77
2022-12-15T13:59:15.248Z,115.57
2022-12-15T14:01:52.185Z,132.70
2022-12-15T14:04:21.545Z,136.40
2022-12-15T14:06:52.192Z,136.43
2022-12-15T14:09:22.920Z,139.70
2022-12-15T14:11:53.859Z,155.33
2022-12-15T14:14:25.684Z,147.20
2022-12-15T14:17:00.273Z,150.53
2022-12-15T14:19:38.683Z,142.10
2022-12-15T14:22:25.196Z,134.53
2022-12-15T14:25:01.962Z,137.67
2022-12-15T14:27:31.128Z,142.07
2022-12-15T14:30:20.777Z,149.37
2022-12-15T14:32:52.613Z,145.40
2022-12-15T14:35:24.636Z,144.00
2022-12-15T14:37:53.261Z,129.70
2022-12-15T14:40:28.249Z,131.20
2022-12-15T14:42:57.343Z,152.23
2022-12-15T14:45:27.671Z,145.37
2022-12-15T14:48:39.067Z,153.00
2022-12-15T14:50:49.251Z,140.87
2022-12-15T14:53:20.387Z,133.00
2022-12-15T14:55:50.315Z,146.80
2022-12-15T14:58:32.496Z,150.07
2022-12-15T15:01:01.868Z,142.67
2022-12-15T15:03:03.979Z,77.50
2022-12-15T15:03:39.075Z,147.33
2022-12-15T15:06:08.895Z,138.67
2022-12-15T15:08:38.816Z,124.30
2022-12-15T15:11:20.712Z,133.43
2022-12-15T15:13:49.397Z,131.83
2022-12-15T15:16:19.362Z,120.90
2022-12-15T15:18:52.466Z,130.20
2022-12-15T15:21:23.456Z,115.30
2022-12-15T15:24:02.848Z,119.40
2022-12-15T15:26:32.340Z,139.63
2022-12-15T15:29:01.024Z,136.50
2022-12-15T15:31:40.758Z,137.77
2022-12-15T15:34:12.151Z,122.27
2022-12-15T15:36:41.052Z,114.60
2022-12-15T15:39:14.009Z,130.07
2022-12-15T15:41:42.660Z,114.77
2022-12-15T15:44:13.950Z,130.93
2022-12-15T15:46:46.062Z,130.30
2022-12-15T15:49:17.826Z,119.07
2022-12-15T15:51:46.548Z,108.83
2022-12-15T15:54:16.056Z,112.00
2022-12-15T15:56:46.488Z,117.57
2022-12-15T15:59:16.449Z,126.57
2022-12-15T16:01:45.300Z,130.00
2022-12-15T16:04:14.501Z,124.40
2022-12-15T16:06:47.647Z,121.63
2022-12-15T16:09:17.137Z,118.80
2022-12-15T16:11:46.169Z,125.23
2022-12-15T16:14:16.426Z,128.05
2022-12-15T16:16:45.963Z,141.93
2022-12-15T16:19:14.455Z,135.23
2022-12-15T16:21:44.745Z,143.90
2022-12-15T16:24:17.013Z,131.87
2022-12-15T16:26:47.273Z,135.60
2022-12-15T16:29:16.642Z,119.53
2022-12-15T16:31:46.106Z,139.27
2022-12-15T16:34:16.419Z,130.77
2022-12-15T16:36:46.685Z,140.57
2022-12-15T16:39:24.894Z,139.07
2022-12-15T16:41:54.630Z,138.37
2022-12-15T16:44:23.830Z,134.03
2022-12-15T16:46:52.399Z,132.83
2022-12-15T16:49:20.916Z,127.77
2022-12-15T16:51:52.831Z,134.20
2022-12-15T16:54:22.735Z,115.27
2022-12-15T16:56:52.117Z,134.23
2022-12-15T16:59:37.104Z,113.10
2022-12-15T17:02:19.235Z,141.10
2022-12-15T17:04:51.218Z,136.30
2022-12-15T17:07:21.500Z,123.13
2022-12-15T17:09:50.746Z,147.67
2022-12-15T17:12:19.683Z,124.97
2022-12-15T17:14:48.366Z,116.17
2022-12-15T17:17:17.301Z,134.47
2022-12-15T17:20:04.960Z,145.07
2022-12-15T17:22:36.881Z,128.47
2022-12-15T17:25:05.917Z,135.93
2022-12-15T17:27:34.449Z,143.90
2022-12-15T17:30:03.697Z,145.40
2022-12-15T17:32:32.572Z,148.70
2022-12-15T17:35:01.545Z,148.13
2022-12-15T17:37:35.033Z,150.70
2022-12-15T17:40:15.660Z,145.80
2022-12-15T17:42:44.087Z,138.43
2022-12-15T17:45:17.307Z,142.43
2022-12-15T17:47:46.051Z,123.97
2022-12-15T17:50:15.716Z,131.20
2022-12-15T17:52:46.372Z,135.13
2022-12-15T17:55:26.249Z,132.27
2022-12-15T17:57:59.140Z,140.27
2022-12-15T18:00:29.230Z,134.83
2022-12-15T18:02:58.229Z,135.77
2022-12-15T18:05:28.085Z,136.60
2022-12-15T18:07:57.610Z,125.97
2022-12-15T18:10:32.162Z,136.33
2022-12-15T18:13:00.844Z,126.20
2022-12-15T18:15:30.399Z,146.20
2022-12-15T18:18:00.357Z,137.13
2022-12-15T18:20:28.951Z,132.93
2022-12-15T18:22:57.402Z,151.17
2022-12-15T18:25:27.309Z,133.33
2022-12-15T18:27:58.412Z,136.97
2022-12-15T18:30:28.021Z,141.50
2022-12-15T18:32:58.365Z,132.63
2022-12-15T18:35:28.196Z,136.30
2022-12-15T18:37:56.629Z,132.83
2022-12-15T18:40:27.056Z,140.07
2022-12-15T18:45:43.775Z,140.77
2022-12-15T18:48:17.119Z,158.07
2022-12-15T18:50:45.727Z,137.27
2022-12-15T18:53:17.661Z,142.10
2022-12-15T18:55:46.110Z,161.10
2022-12-15T18:58:21.571Z,159.43
2022-12-15T19:00:50.722Z,160.80
2022-12-15T19:03:19.645Z,150.47
2022-12-15T19:05:48.421Z,163.40
2022-12-15T19:08:20.094Z,155.33
2022-12-15T19:10:51.365Z,168.83
2022-12-15T19:13:22.008Z,153.13
2022-12-15T19:15:50.459Z,175.30
2022-12-15T19:18:33.413Z,150.83
2022-12-15T19:21:20.058Z,161.23
2022-12-15T19:23:48.467Z,140.53
2022-12-15T19:26:17.040Z,156.27
2022-12-15T19:28:46.956Z,162.97
2022-12-15T19:31:15.483Z,165.53
2022-12-15T19:33:44.037Z,165.63
2022-12-15T19:36:15.874Z,171.30
2022-12-15T19:38:44.895Z,148.00
2022-12-15T19:41:16.095Z,176.37
2022-12-15T19:43:44.642Z,179.50
2022-12-15T19:46:17.368Z,169.57
2022-12-15T19:48:46.117Z,178.70
2022-12-15T19:51:14.975Z,173.17
2022-12-15T19:53:43.768Z,173.83
2022-12-15T19:56:15.536Z,163.27
2022-12-15T19:58:44.107Z,165.93
2022-12-15T20:01:14.787Z,173.80
2022-12-15T20:03:45.609Z,175.53
2022-12-15T20:06:15.901Z,172.50
2022-12-15T20:08:45.856Z,185.80
2022-12-15T20:11:18.379Z,195.90
2022-12-15T20:13:46.859Z,174.90
2022-12-15T20:16:18.832Z,164.07
2022-12-15T20:18:49.169Z,173.63
2022-12-15T20:21:22.335Z,188.50
2022-12-15T20:23:53.017Z,181.13
2022-12-15T20:26:21.676Z,159.90
2022-12-15T20:28:50.366Z,171.07
2022-12-15T20:31:19.937Z,155.07
2022-12-15T20:33:49.937Z,176.03
2022-12-15T20:36:19.718Z,187.17
2022-12-15T20:38:48.425Z,156.87
2022-12-15T20:41:18.121Z,180.27
2022-12-15T20:43:46.603Z,181.57
2022-12-15T20:46:17.078Z,174.03
2022-12-15T20:48:46.015Z,183.53
2022-12-15T20:51:18.184Z,180.70
2022-12-15T20:53:46.876Z,161.67
2022-12-15T20:56:15.409Z,169.67
2022-12-15T20:58:44.352Z,184.30
2022-12-15T21:01:20.221Z,184.43
2022-12-15T21:03:49.231Z,175.10
2022-12-15T21:06:22.141Z,189.53
2022-12-15T21:08:50.897Z,179.20
2022-12-15T21:11:20.894Z,174.87
2022-12-15T21:13:50.388Z,179.17
2022-12-15T21:16:20.558Z,181.17
2022-12-15T21:19:18.544Z,172.10
2022-12-15T21:21:40.720Z,179.53
2022-12-15T21:24:15.198Z,186.83
2022-12-15T21:26:43.707Z,176.50
2022-12-15T21:29:14.019Z,172.17
2022-12-15T21:31:42.888Z,177.23
2022-12-15T21:34:11.646Z,163.87
2022-12-15T21:36:42.021Z,159.03
2022-12-15T21:39:11.732Z,167.07
2022-12-15T21:41:42.038Z,126.60
2022-12-15T21:44:13.230Z,144.87
2022-12-15T21:46:41.972Z,141.40
2022-12-15T21:49:18.082Z,153.13
2022-12-15T21:51:49.652Z,127.70
2022-12-15T21:54:24.746Z,134.20
2022-12-15T21:56:55.969Z,105.23
2022-12-15T21:59:25.305Z,139.97
2022-12-15T22:01:55.339Z,130.23
2022-12-15T22:04:25.832Z,136.23
2022-12-15T22:06:55.645Z,135.77
2022-12-15T22:09:24.162Z,119.90
2022-12-15T22:11:54.072Z,113.37
2022-12-15T22:14:26.147Z,113.47
2022-12-15T22:16:54.869Z,115.43
2022-12-15T22:19:23.409Z,114.40
2022-12-15T22:21:52.236Z,120.40
2022-12-15T22:24:22.233Z,123.97
2022-12-15T22:26:51.215Z,94.03
2022-12-15T22:29:20.620Z,125.43
2022-12-15T22:31:49.598Z,125.13
2022-12-15T22:34:19.558Z,112.70
2022-12-15T22:36:48.108Z,97.47
2022-12-15T22:39:16.559Z,107.57
2022-12-15T22:41:47.902Z,97.93
2022-12-15T22:44:18.226Z,103.20
2022-12-15T22:46:46.751Z,88.37
2022-12-15T22:49:16.688Z,91.27
2022-12-15T22:51:45.180Z,87.20
2022-12-15T22:54:19.206Z,99.70
2022-12-15T22:56:50.787Z,78.60
2022-12-15T22:59:21.365Z,96.47
2022-12-15T23:01:49.954Z,98.60
2022-12-15T23:04:18.615Z,80.90
2022-12-15T23:06:47.061Z,86.73
2022-12-15T23:09:15.551Z,91.10
2022-12-15T23:11:44.008Z,87.10
2022-12-15T23:14:14.640Z,86.53
2022-12-15T23:16:42.625Z,107.07
2022-12-15T23:19:23.610Z,89.40
2022-12-15T23:21:52.259Z,88.50
2022-12-15T23:24:20.740Z,99.03
2022-12-15T23:26:49.448Z,88.77
2022-12-15T23:29:19.546Z,94.77
2022-12-15T23:31:48.004Z,83.33
2022-12-15T23:34:16.485Z,85.47
2022-12-15T23:36:44.931Z,70.33
2022-12-15T23:39:13.473Z,87.50
2022-12-15T23:41:41.963Z,74.23
2022-12-15T23:44:12.236Z,73.93
2022-12-15T23:46:42.817Z,76.93
2022-12-15T23:49:11.166Z,69.40
2022-12-15T23:51:39.625Z,79.07
2022-12-15T23:54:08.543Z,74.33
2022-12-15T23:56:37.039Z,84.50
2022-12-15T23:59:05.505Z,76.20
